sensor_id;sensor_type;location;lat;lon;timestamp;P1;durP1;ratioP1;P2;durP2;ratioP2
5553;SDS011;2800;49.528;8.666;2022-11-15T00:00:07;9.60;;;3.90;;
5553;SDS011;2800;49.528;8.666;2022-11-15T00:02:34;8.40;;;3.70;;
5553;SDS011;2800;49.528;8.666;2022-11-15T00:04:59;8.63;;;3.40;;
5553;SDS011;2800;49.528;8.666;2022-11-15T00:07:24;6.27;;;3.53;;
5553;SDS011;2800;49.528;8.666;2022-11-15T00:09:50;11.50;;;3.57;;
5553;SDS011;2800;49.528;8.666;2022-11-15T00:12:15;7.23;;;3.60;;
5553;SDS011;2800;49.528;8.666;2022-11-15T00:14:41;7.37;;;4.13;;
5553;SDS011;2800;49.528;8.666;2022-11-15T00:17:07;6.83;;;3.60;;
5553;SDS011;2800;49.528;8.666;2022-11-15T00:19:32;7.00;;;3.93;;
5553;SDS011;2800;49.528;8.666;2022-11-15T00:21:58;7.60;;;3.90;;
5553;SDS011;2800;49.528;8.666;2022-11-15T00:24:23;7.23;;;3.80;;
5553;SDS011;2800;49.528;8.666;2022-11-15T00:26:49;6.97;;;3.53;;
5553;SDS011;2800;49.528;8.666;2022-11-15T00:29:14;8.67;;;3.90;;
5553;SDS011;2800;49.528;8.666;2022-11-15T00:31:40;7.43;;;3.80;;
5553;SDS011;2800;49.528;8.666;2022-11-15T00:34:05;8.43;;;4.13;;
5553;SDS011;2800;49.528;8.666;2022-11-15T00:36:34;7.20;;;3.73;;
5553;SDS011;2800;49.528;8.666;2022-11-15T00:39:00;7.90;;;3.60;;
5553;SDS011;2800;49.528;8.666;2022-11-15T00:41:25;9.17;;;3.80;;
5553;SDS011;2800;49.528;8.666;2022-11-15T00:43:51;9.80;;;3.90;;
5553;SDS011;2800;49.528;8.666;2022-11-15T00:46:16;8.90;;;3.80;;
5553;SDS011;2800;49.528;8.666;2022-11-15T00:48:42;7.03;;;3.50;;
5553;SDS011;2800;49.528;8.666;2022-11-15T00:51:07;9.07;;;4.00;;
5553;SDS011;2800;49.528;8.666;2022-11-15T00:53:33;9.07;;;5.30;;
5553;SDS011;2800;49.528;8.666;2022-11-15T00:55:59;11.07;;;6.30;;
5553;SDS011;2800;49.528;8.666;2022-11-15T00:58:24;10.97;;;7.30;;
5553;SDS011;2800;49.528;8.666;2022-11-15T01:00:50;9.80;;;5.53;;
5553;SDS011;2800;49.528;8.666;2022-11-15T01:03:15;14.33;;;5.80;;
5553;SDS011;2800;49.528;8.666;2022-11-15T01:05:41;10.30;;;5.60;;
5553;SDS011;2800;49.528;8.666;2022-11-15T01:08:10;11.23;;;4.67;;
5553;SDS011;2800;49.528;8.666;2022-11-15T01:10:38;10.20;;;4.57;;
5553;SDS011;2800;49.528;8.666;2022-11-15T01:13:03;14.60;;;4.90;;
5553;SDS011;2800;49.528;8.666;2022-11-15T01:15:29;13.17;;;5.30;;
5553;SDS011;2800;49.528;8.666;2022-11-15T01:17:54;8.00;;;4.70;;
5553;SDS011;2800;49.528;8.666;2022-11-15T01:20:20;8.17;;;4.50;;
5553;SDS011;2800;49.528;8.666;2022-11-15T01:22:45;8.80;;;4.40;;
5553;SDS011;2800;49.528;8.666;2022-11-15T01:25:11;9.00;;;4.73;;
5553;SDS011;2800;49.528;8.666;2022-11-15T01:27:36;9.60;;;4.87;;
5553;SDS011;2800;49.528;8.666;2022-11-15T01:30:02;7.10;;;4.03;;
5553;SDS011;2800;49.528;8.666;2022-11-15T01:32:28;8.10;;;4.87;;
5553;SDS011;2800;49.528;8.666;2022-11-15T01:34:54;10.47;;;4.60;;
5553;SDS011;2800;49.528;8.666;2022-11-15T01:37:19;7.40;;;4.07;;
5553;SDS011;2800;49.528;8.666;2022-11-15T01:39:45;10.70;;;4.67;;
5553;SDS011;2800;49.528;8.666;2022-11-15T01:42:13;7.80;;;4.57;;
5553;SDS011;2800;49.528;8.666;2022-11-15T01:44:49;8.70;;;4.00;;
5553;SDS011;2800;49.528;8.666;2022-11-15T01:50:01;8.43;;;4.17;;
5553;SDS011;2800;49.528;8.666;2022-11-15T01:52:28;7.60;;;3.90;;
5553;SDS011;2800;49.528;8.666;2022-11-15T01:57:34;8.90;;;4.23;;
5553;SDS011;2800;49.528;8.666;2022-11-15T02:00:00;11.30;;;4.40;;
5553;SDS011;2800;49.528;8.666;2022-11-15T02:02:28;8.93;;;4.03;;
5553;SDS011;2800;49.528;8.666;2022-11-15T02:04:54;8.53;;;4.40;;
5553;SDS011;2800;49.528;8.666;2022-11-15T02:07:20;10.20;;;4.07;;
5553;SDS011;2800;49.528;8.666;2022-11-15T02:09:47;9.73;;;4.83;;
5553;SDS011;2800;49.528;8.666;2022-11-15T02:12:14;14.10;;;8.90;;
5553;SDS011;2800;49.528;8.666;2022-11-15T02:14:44;51.33;;;29.13;;
5553;SDS011;2800;49.528;8.666;2022-11-15T02:23:04;12.70;;;7.83;;
5553;SDS011;2800;49.528;8.666;2022-11-15T02:32:06;6.90;;;4.23;;
5553;SDS011;2800;49.528;8.666;2022-11-15T02:37:39;9.43;;;4.43;;
5553;SDS011;2800;49.528;8.666;2022-11-15T02:43:15;17.40;;;5.90;;
5553;SDS011;2800;49.528;8.666;2022-11-15T02:46:10;60.17;;;30.90;;
5553;SDS011;2800;49.528;8.666;2022-11-15T02:48:44;73.83;;;36.77;;
5553;SDS011;2800;49.528;8.666;2022-11-15T02:51:11;48.60;;;25.10;;
5553;SDS011;2800;49.528;8.666;2022-11-15T02:53:38;41.93;;;20.97;;
5553;SDS011;2800;49.528;8.666;2022-11-15T02:56:04;47.33;;;24.90;;
5553;SDS011;2800;49.528;8.666;2022-11-15T03:06:58;79.50;;;46.60;;
5553;SDS011;2800;49.528;8.666;2022-11-15T03:09:40;19.93;;;13.00;;
5553;SDS011;2800;49.528;8.666;2022-11-15T03:12:28;17.67;;;10.87;;
5553;SDS011;2800;49.528;8.666;2022-11-15T03:15:05;12.30;;;7.10;;
5553;SDS011;2800;49.528;8.666;2022-11-15T03:17:36;18.57;;;13.70;;
5553;SDS011;2800;49.528;8.666;2022-11-15T03:20:06;7.67;;;4.27;;
5553;SDS011;2800;49.528;8.666;2022-11-15T03:22:35;16.40;;;10.63;;
5553;SDS011;2800;49.528;8.666;2022-11-15T03:25:04;9.47;;;5.70;;
5553;SDS011;2800;49.528;8.666;2022-11-15T03:27:35;6.13;;;4.00;;
5553;SDS011;2800;49.528;8.666;2022-11-15T03:30:06;8.90;;;4.80;;
5553;SDS011;2800;49.528;8.666;2022-11-15T03:32:55;9.93;;;4.60;;
5553;SDS011;2800;49.528;8.666;2022-11-15T03:35:21;7.30;;;4.00;;
5553;SDS011;2800;49.528;8.666;2022-11-15T03:40:36;7.63;;;3.97;;
5553;SDS011;2800;49.528;8.666;2022-11-15T03:45:59;8.10;;;4.20;;
5553;SDS011;2800;49.528;8.666;2022-11-15T03:48:30;6.87;;;3.97;;
5553;SDS011;2800;49.528;8.666;2022-11-15T03:51:00;7.47;;;3.87;;
5553;SDS011;2800;49.528;8.666;2022-11-15T03:53:27;8.73;;;3.80;;
5553;SDS011;2800;49.528;8.666;2022-11-15T03:55:53;7.00;;;3.90;;
5553;SDS011;2800;49.528;8.666;2022-11-15T03:58:18;8.10;;;3.40;;
5553;SDS011;2800;49.528;8.666;2022-11-15T04:00:44;6.27;;;3.60;;
5553;SDS011;2800;49.528;8.666;2022-11-15T04:03:09;8.40;;;4.10;;
5553;SDS011;2800;49.528;8.666;2022-11-15T04:05:35;8.83;;;4.03;;
5553;SDS011;2800;49.528;8.666;2022-11-15T04:08:00;6.23;;;3.60;;
5553;SDS011;2800;49.528;8.666;2022-11-15T04:10:26;7.80;;;3.73;;
5553;SDS011;2800;49.528;8.666;2022-11-15T04:12:51;7.30;;;3.73;;
5553;SDS011;2800;49.528;8.666;2022-11-15T04:15:20;12.20;;;4.37;;
5553;SDS011;2800;49.528;8.666;2022-11-15T04:17:48;9.20;;;3.47;;
5553;SDS011;2800;49.528;8.666;2022-11-15T04:20:20;6.80;;;3.67;;
5553;SDS011;2800;49.528;8.666;2022-11-15T04:23:06;7.37;;;3.63;;
5553;SDS011;2800;49.528;8.666;2022-11-15T04:25:54;9.47;;;4.10;;
5553;SDS011;2800;49.528;8.666;2022-11-15T04:28:21;6.07;;;3.67;;
5553;SDS011;2800;49.528;8.666;2022-11-15T04:30:46;7.03;;;3.50;;
5553;SDS011;2800;49.528;8.666;2022-11-15T04:33:12;8.60;;;3.90;;
5553;SDS011;2800;49.528;8.666;2022-11-15T04:35:38;5.80;;;3.20;;
5553;SDS011;2800;49.528;8.666;2022-11-15T04:38:04;8.57;;;4.33;;
5553;SDS011;2800;49.528;8.666;2022-11-15T04:40:32;12.73;;;4.33;;
5553;SDS011;2800;49.528;8.666;2022-11-15T04:42:57;7.40;;;3.77;;
5553;SDS011;2800;49.528;8.666;2022-11-15T04:45:23;8.07;;;3.20;;
5553;SDS011;2800;49.528;8.666;2022-11-15T04:47:48;8.10;;;3.80;;
5553;SDS011;2800;49.528;8.666;2022-11-15T04:50:14;9.00;;;4.10;;
5553;SDS011;2800;49.528;8.666;2022-11-15T04:52:41;8.27;;;4.07;;
5553;SDS011;2800;49.528;8.666;2022-11-15T04:55:09;7.73;;;3.77;;
5553;SDS011;2800;49.528;8.666;2022-11-15T04:57:35;6.70;;;3.50;;
5553;SDS011;2800;49.528;8.666;2022-11-15T05:00:03;7.67;;;3.60;;
5553;SDS011;2800;49.528;8.666;2022-11-15T05:02:30;6.90;;;3.40;;
5553;SDS011;2800;49.528;8.666;2022-11-15T05:05:15;10.33;;;4.30;;
5553;SDS011;2800;49.528;8.666;2022-11-15T05:07:41;11.00;;;5.33;;
5553;SDS011;2800;49.528;8.666;2022-11-15T05:10:07;10.00;;;5.47;;
5553;SDS011;2800;49.528;8.666;2022-11-15T05:12:32;9.30;;;4.60;;
5553;SDS011;2800;49.528;8.666;2022-11-15T05:14:58;7.53;;;4.33;;
5553;SDS011;2800;49.528;8.666;2022-11-15T05:17:23;8.67;;;3.90;;
5553;SDS011;2800;49.528;8.666;2022-11-15T05:19:49;8.50;;;4.50;;
5553;SDS011;2800;49.528;8.666;2022-11-15T05:22:16;17.23;;;9.47;;
5553;SDS011;2800;49.528;8.666;2022-11-15T05:24:42;22.37;;;11.77;;
5553;SDS011;2800;49.528;8.666;2022-11-15T05:27:08;10.17;;;5.33;;
5553;SDS011;2800;49.528;8.666;2022-11-15T05:29:33;10.77;;;4.50;;
5553;SDS011;2800;49.528;8.666;2022-11-15T05:31:59;12.53;;;7.37;;
5553;SDS011;2800;49.528;8.666;2022-11-15T05:34:24;9.10;;;4.37;;
5553;SDS011;2800;49.528;8.666;2022-11-15T05:36:51;6.90;;;3.80;;
5553;SDS011;2800;49.528;8.666;2022-11-15T05:39:17;55.37;;;28.57;;
5553;SDS011;2800;49.528;8.666;2022-11-15T05:41:44;74.03;;;37.30;;
5553;SDS011;2800;49.528;8.666;2022-11-15T05:44:18;162.90;;;79.87;;
5553;SDS011;2800;49.528;8.666;2022-11-15T05:46:46;62.83;;;31.47;;
5553;SDS011;2800;49.528;8.666;2022-11-15T05:49:13;51.90;;;28.17;;
5553;SDS011;2800;49.528;8.666;2022-11-15T05:51:44;19.63;;;9.60;;
5553;SDS011;2800;49.528;8.666;2022-11-15T05:54:13;21.70;;;14.47;;
5553;SDS011;2800;49.528;8.666;2022-11-15T05:56:39;18.00;;;13.50;;
5553;SDS011;2800;49.528;8.666;2022-11-15T05:59:05;19.43;;;13.07;;
5553;SDS011;2800;49.528;8.666;2022-11-15T06:01:32;14.80;;;10.43;;
5553;SDS011;2800;49.528;8.666;2022-11-15T06:03:57;13.97;;;8.27;;
5553;SDS011;2800;49.528;8.666;2022-11-15T06:06:23;11.30;;;7.07;;
5553;SDS011;2800;49.528;8.666;2022-11-15T06:08:48;12.20;;;7.50;;
5553;SDS011;2800;49.528;8.666;2022-11-15T06:11:14;16.13;;;8.33;;
5553;SDS011;2800;49.528;8.666;2022-11-15T06:13:39;11.37;;;6.80;;
5553;SDS011;2800;49.528;8.666;2022-11-15T06:16:05;10.23;;;5.47;;
5553;SDS011;2800;49.528;8.666;2022-11-15T06:18:31;10.97;;;5.67;;
5553;SDS011;2800;49.528;8.666;2022-11-15T06:20:59;9.80;;;7.20;;
5553;SDS011;2800;49.528;8.666;2022-11-15T06:23:25;11.97;;;7.57;;
5553;SDS011;2800;49.528;8.666;2022-11-15T06:25:51;13.90;;;7.10;;
5553;SDS011;2800;49.528;8.666;2022-11-15T06:28:16;11.77;;;6.40;;
5553;SDS011;2800;49.528;8.666;2022-11-15T06:30:42;8.37;;;6.20;;
5553;SDS011;2800;49.528;8.666;2022-11-15T06:33:07;9.80;;;6.30;;
5553;SDS011;2800;49.528;8.666;2022-11-15T06:35:34;10.20;;;6.27;;
5553;SDS011;2800;49.528;8.666;2022-11-15T06:38:04;12.67;;;6.50;;
5553;SDS011;2800;49.528;8.666;2022-11-15T06:40:33;13.50;;;7.60;;
5553;SDS011;2800;49.528;8.666;2022-11-15T06:43:03;11.33;;;7.37;;
5553;SDS011;2800;49.528;8.666;2022-11-15T06:45:29;9.90;;;6.53;;
5553;SDS011;2800;49.528;8.666;2022-11-15T06:47:55;11.57;;;7.10;;
5553;SDS011;2800;49.528;8.666;2022-11-15T06:50:20;16.30;;;7.37;;
5553;SDS011;2800;49.528;8.666;2022-11-15T06:52:46;26.20;;;10.90;;
5553;SDS011;2800;49.528;8.666;2022-11-15T06:55:11;15.03;;;9.77;;
5553;SDS011;2800;49.528;8.666;2022-11-15T06:57:37;10.90;;;6.70;;
5553;SDS011;2800;49.528;8.666;2022-11-15T07:00:10;10.43;;;6.07;;
5553;SDS011;2800;49.528;8.666;2022-11-15T07:02:36;11.10;;;6.20;;
5553;SDS011;2800;49.528;8.666;2022-11-15T07:05:02;9.50;;;6.23;;
5553;SDS011;2800;49.528;8.666;2022-11-15T07:07:27;10.73;;;6.07;;
5553;SDS011;2800;49.528;8.666;2022-11-15T07:09:53;11.93;;;5.63;;
5553;SDS011;2800;49.528;8.666;2022-11-15T07:12:18;10.50;;;6.30;;
5553;SDS011;2800;49.528;8.666;2022-11-15T07:14:44;12.43;;;7.50;;
5553;SDS011;2800;49.528;8.666;2022-11-15T07:17:09;12.03;;;6.47;;
5553;SDS011;2800;49.528;8.666;2022-11-15T07:19:35;11.90;;;6.20;;
5553;SDS011;2800;49.528;8.666;2022-11-15T07:22:00;11.10;;;7.00;;
5553;SDS011;2800;49.528;8.666;2022-11-15T07:24:26;10.93;;;6.10;;
5553;SDS011;2800;49.528;8.666;2022-11-15T07:26:51;11.73;;;5.90;;
5553;SDS011;2800;49.528;8.666;2022-11-15T07:29:17;12.10;;;6.27;;
5553;SDS011;2800;49.528;8.666;2022-11-15T07:31:42;9.63;;;5.70;;
5553;SDS011;2800;49.528;8.666;2022-11-15T07:34:08;8.63;;;5.40;;
5553;SDS011;2800;49.528;8.666;2022-11-15T07:36:34;8.80;;;5.13;;
5553;SDS011;2800;49.528;8.666;2022-11-15T07:39:00;10.67;;;5.13;;
5553;SDS011;2800;49.528;8.666;2022-11-15T07:41:26;9.00;;;4.70;;
5553;SDS011;2800;49.528;8.666;2022-11-15T07:43:51;9.40;;;5.20;;
5553;SDS011;2800;49.528;8.666;2022-11-15T07:46:17;7.83;;;4.27;;
5553;SDS011;2800;49.528;8.666;2022-11-15T07:48:43;8.50;;;3.80;;
5553;SDS011;2800;49.528;8.666;2022-11-15T07:51:12;9.43;;;3.93;;
5553;SDS011;2800;49.528;8.666;2022-11-15T07:53:39;6.80;;;3.47;;
5553;SDS011;2800;49.528;8.666;2022-11-15T07:56:08;7.10;;;3.97;;
5553;SDS011;2800;49.528;8.666;2022-11-15T07:58:34;8.23;;;3.43;;
5553;SDS011;2800;49.528;8.666;2022-11-15T08:01:03;7.67;;;2.97;;
5553;SDS011;2800;49.528;8.666;2022-11-15T08:03:29;5.63;;;3.03;;
5553;SDS011;2800;49.528;8.666;2022-11-15T08:05:55;5.60;;;3.13;;
5553;SDS011;2800;49.528;8.666;2022-11-15T08:08:20;7.13;;;3.63;;
5553;SDS011;2800;49.528;8.666;2022-11-15T08:10:46;7.50;;;3.30;;
5553;SDS011;2800;49.528;8.666;2022-11-15T08:13:12;7.97;;;3.47;;
5553;SDS011;2800;49.528;8.666;2022-11-15T08:15:37;8.00;;;3.67;;
5553;SDS011;2800;49.528;8.666;2022-11-15T08:18:04;6.57;;;3.27;;
5553;SDS011;2800;49.528;8.666;2022-11-15T08:20:32;6.60;;;3.10;;
5553;SDS011;2800;49.528;8.666;2022-11-15T08:22:59;5.90;;;2.80;;
5553;SDS011;2800;49.528;8.666;2022-11-15T08:25:26;6.03;;;3.37;;
5553;SDS011;2800;49.528;8.666;2022-11-15T08:27:54;5.00;;;2.47;;
5553;SDS011;2800;49.528;8.666;2022-11-15T08:30:28;7.00;;;3.27;;
5553;SDS011;2800;49.528;8.666;2022-11-15T08:32:55;6.93;;;3.40;;
5553;SDS011;2800;49.528;8.666;2022-11-15T08:35:22;7.77;;;3.17;;
5553;SDS011;2800;49.528;8.666;2022-11-15T08:37:48;5.70;;;3.20;;
5553;SDS011;2800;49.528;8.666;2022-11-15T08:40:14;6.83;;;3.07;;
5553;SDS011;2800;49.528;8.666;2022-11-15T08:42:40;6.27;;;3.33;;
5553;SDS011;2800;49.528;8.666;2022-11-15T08:45:06;9.00;;;3.50;;
5553;SDS011;2800;49.528;8.666;2022-11-15T08:47:32;6.40;;;3.00;;
5553;SDS011;2800;49.528;8.666;2022-11-15T08:49:57;7.23;;;3.73;;
5553;SDS011;2800;49.528;8.666;2022-11-15T08:52:23;6.80;;;3.10;;
5553;SDS011;2800;49.528;8.666;2022-11-15T08:54:49;6.50;;;3.27;;
5553;SDS011;2800;49.528;8.666;2022-11-15T08:57:15;5.90;;;3.10;;
5553;SDS011;2800;49.528;8.666;2022-11-15T08:59:40;8.20;;;3.20;;
5553;SDS011;2800;49.528;8.666;2022-11-15T09:02:06;9.70;;;3.33;;
5553;SDS011;2800;49.528;8.666;2022-11-15T09:04:36;10.77;;;3.53;;
5553;SDS011;2800;49.528;8.666;2022-11-15T09:07:01;7.27;;;3.10;;
5553;SDS011;2800;49.528;8.666;2022-11-15T09:09:27;6.93;;;3.20;;
5553;SDS011;2800;49.528;8.666;2022-11-15T09:11:52;6.27;;;2.90;;
5553;SDS011;2800;49.528;8.666;2022-11-15T09:14:18;5.57;;;2.97;;
5553;SDS011;2800;49.528;8.666;2022-11-15T09:16:43;8.23;;;2.93;;
5553;SDS011;2800;49.528;8.666;2022-11-15T09:19:09;6.93;;;2.87;;
5553;SDS011;2800;49.528;8.666;2022-11-15T09:21:34;7.00;;;3.03;;
5553;SDS011;2800;49.528;8.666;2022-11-15T09:24:00;7.13;;;3.20;;
5553;SDS011;2800;49.528;8.666;2022-11-15T09:26:25;8.13;;;2.50;;
5553;SDS011;2800;49.528;8.666;2022-11-15T09:28:51;5.20;;;2.63;;
5553;SDS011;2800;49.528;8.666;2022-11-15T09:31:16;7.50;;;2.93;;
5553;SDS011;2800;49.528;8.666;2022-11-15T09:33:45;7.53;;;2.80;;
5553;SDS011;2800;49.528;8.666;2022-11-15T09:36:11;5.37;;;2.53;;
5553;SDS011;2800;49.528;8.666;2022-11-15T09:38:37;5.43;;;2.73;;
5553;SDS011;2800;49.528;8.666;2022-11-15T09:41:10;5.80;;;2.87;;
5553;SDS011;2800;49.528;8.666;2022-11-15T09:43:44;8.70;;;2.80;;
5553;SDS011;2800;49.528;8.666;2022-11-15T09:49:14;8.90;;;3.03;;
5553;SDS011;2800;49.528;8.666;2022-11-15T09:51:43;7.57;;;3.40;;
5553;SDS011;2800;49.528;8.666;2022-11-15T09:57:05;7.13;;;3.20;;
5553;SDS011;2800;49.528;8.666;2022-11-15T10:04:56;7.87;;;5.40;;
5553;SDS011;2800;49.528;8.666;2022-11-15T10:07:27;6.77;;;3.90;;
5553;SDS011;2800;49.528;8.666;2022-11-15T10:10:13;7.53;;;4.70;;
5553;SDS011;2800;49.528;8.666;2022-11-15T10:12:41;8.27;;;4.27;;
5553;SDS011;2800;49.528;8.666;2022-11-15T10:15:13;10.93;;;3.70;;
5553;SDS011;2800;49.528;8.666;2022-11-15T10:20:40;7.70;;;4.37;;
5553;SDS011;2800;49.528;8.666;2022-11-15T10:23:13;9.90;;;6.20;;
5553;SDS011;2800;49.528;8.666;2022-11-15T10:25:40;7.60;;;4.03;;
5553;SDS011;2800;49.528;8.666;2022-11-15T10:30:55;9.53;;;6.80;;
5553;SDS011;2800;49.528;8.666;2022-11-15T10:33:26;7.67;;;3.73;;
5553;SDS011;2800;49.528;8.666;2022-11-15T10:38:50;8.83;;;3.60;;
5553;SDS011;2800;49.528;8.666;2022-11-15T10:41:18;7.77;;;3.43;;
5553;SDS011;2800;49.528;8.666;2022-11-15T10:46:46;8.23;;;4.00;;
5553;SDS011;2800;49.528;8.666;2022-11-15T10:49:29;7.43;;;3.50;;
5553;SDS011;2800;49.528;8.666;2022-11-15T10:52:00;6.37;;;3.70;;
5553;SDS011;2800;49.528;8.666;2022-11-15T10:54:36;7.10;;;3.50;;
5553;SDS011;2800;49.528;8.666;2022-11-15T10:57:10;8.00;;;3.63;;
5553;SDS011;2800;49.528;8.666;2022-11-15T10:59:39;9.70;;;3.70;;
5553;SDS011;2800;49.528;8.666;2022-11-15T11:05:00;6.53;;;3.10;;
5553;SDS011;2800;49.528;8.666;2022-11-15T11:07:31;6.30;;;3.37;;
5553;SDS011;2800;49.528;8.666;2022-11-15T11:10:03;13.00;;;5.60;;
5553;SDS011;2800;49.528;8.666;2022-11-15T11:12:42;6.87;;;3.17;;
5553;SDS011;2800;49.528;8.666;2022-11-15T11:15:14;8.20;;;3.20;;
5553;SDS011;2800;49.528;8.666;2022-11-15T11:20:36;6.83;;;3.20;;
5553;SDS011;2800;49.528;8.666;2022-11-15T11:28:33;6.90;;;3.47;;
5553;SDS011;2800;49.528;8.666;2022-11-15T11:39:39;8.40;;;3.10;;
5553;SDS011;2800;49.528;8.666;2022-11-15T11:48:02;5.20;;;2.60;;
5553;SDS011;2800;49.528;8.666;2022-11-15T11:50:36;7.83;;;3.17;;
5553;SDS011;2800;49.528;8.666;2022-11-15T11:53:04;6.40;;;2.83;;
5553;SDS011;2800;49.528;8.666;2022-11-15T11:55:58;5.90;;;2.27;;
5553;SDS011;2800;49.528;8.666;2022-11-15T11:58:39;4.57;;;2.10;;
5553;SDS011;2800;49.528;8.666;2022-11-15T12:09:02;7.03;;;3.00;;
5553;SDS011;2800;49.528;8.666;2022-11-15T12:11:47;5.27;;;2.50;;
5553;SDS011;2800;49.528;8.666;2022-11-15T12:17:27;6.77;;;2.63;;
5553;SDS011;2800;49.528;8.666;2022-11-15T12:19:59;7.37;;;2.97;;
5553;SDS011;2800;49.528;8.666;2022-11-15T12:25:02;5.37;;;2.40;;
5553;SDS011;2800;49.528;8.666;2022-11-15T12:30:11;5.87;;;2.80;;
5553;SDS011;2800;49.528;8.666;2022-11-15T12:32:52;9.90;;;3.00;;
5553;SDS011;2800;49.528;8.666;2022-11-15T12:35:42;7.33;;;2.87;;
5553;SDS011;2800;49.528;8.666;2022-11-15T12:38:13;7.20;;;2.67;;
5553;SDS011;2800;49.528;8.666;2022-11-15T12:41:15;5.67;;;2.57;;
5553;SDS011;2800;49.528;8.666;2022-11-15T12:43:42;6.20;;;2.83;;
5553;SDS011;2800;49.528;8.666;2022-11-15T12:46:13;6.77;;;3.27;;
5553;SDS011;2800;49.528;8.666;2022-11-15T12:51:16;6.67;;;3.63;;
5553;SDS011;2800;49.528;8.666;2022-11-15T12:53:44;8.17;;;3.60;;
5553;SDS011;2800;49.528;8.666;2022-11-15T12:59:01;7.50;;;3.90;;
5553;SDS011;2800;49.528;8.666;2022-11-15T13:04:08;5.00;;;2.70;;
5553;SDS011;2800;49.528;8.666;2022-11-15T13:06:42;8.60;;;3.90;;
5553;SDS011;2800;49.528;8.666;2022-11-15T13:17:02;6.73;;;3.33;;
5553;SDS011;2800;49.528;8.666;2022-11-15T13:19:41;7.63;;;3.50;;
5553;SDS011;2800;49.528;8.666;2022-11-15T13:22:10;7.90;;;3.90;;
5553;SDS011;2800;49.528;8.666;2022-11-15T13:24:54;9.00;;;4.87;;
5553;SDS011;2800;49.528;8.666;2022-11-15T13:27:20;8.33;;;3.43;;
5553;SDS011;2800;49.528;8.666;2022-11-15T13:29:45;9.93;;;4.50;;
5553;SDS011;2800;49.528;8.666;2022-11-15T13:32:12;7.63;;;3.80;;
5553;SDS011;2800;49.528;8.666;2022-11-15T13:34:42;11.30;;;5.13;;
5553;SDS011;2800;49.528;8.666;2022-11-15T13:39:45;6.90;;;4.10;;
5553;SDS011;2800;49.528;8.666;2022-11-15T13:42:21;17.07;;;4.67;;
5553;SDS011;2800;49.528;8.666;2022-11-15T13:44:57;7.83;;;4.93;;
5553;SDS011;2800;49.528;8.666;2022-11-15T13:47:28;8.37;;;3.83;;
5553;SDS011;2800;49.528;8.666;2022-11-15T13:49:58;10.50;;;4.47;;
5553;SDS011;2800;49.528;8.666;2022-11-15T13:52:30;8.90;;;4.07;;
5553;SDS011;2800;49.528;8.666;2022-11-15T13:55:16;8.37;;;4.20;;
5553;SDS011;2800;49.528;8.666;2022-11-15T14:02:50;24.30;;;16.80;;
5553;SDS011;2800;49.528;8.666;2022-11-15T14:05:20;80.03;;;49.00;;
5553;SDS011;2800;49.528;8.666;2022-11-15T14:07:55;58.13;;;35.00;;
5553;SDS011;2800;49.528;8.666;2022-11-15T14:10:35;37.73;;;23.37;;
5553;SDS011;2800;49.528;8.666;2022-11-15T14:13:02;22.83;;;7.87;;
5553;SDS011;2800;49.528;8.666;2022-11-15T14:15:30;10.73;;;5.00;;
5553;SDS011;2800;49.528;8.666;2022-11-15T14:17:56;11.30;;;6.57;;
5553;SDS011;2800;49.528;8.666;2022-11-15T14:22:51;20.10;;;12.77;;
5553;SDS011;2800;49.528;8.666;2022-11-15T14:25:19;10.33;;;5.30;;
5553;SDS011;2800;49.528;8.666;2022-11-15T14:30:38;15.43;;;8.47;;
5553;SDS011;2800;49.528;8.666;2022-11-15T14:33:17;55.63;;;37.93;;
5553;SDS011;2800;49.528;8.666;2022-11-15T14:35:55;14.30;;;9.30;;
5553;SDS011;2800;49.528;8.666;2022-11-15T14:38:22;17.77;;;10.80;;
5553;SDS011;2800;49.528;8.666;2022-11-15T14:40:48;27.60;;;17.70;;
5553;SDS011;2800;49.528;8.666;2022-11-15T14:43:14;9.00;;;4.80;;
5553;SDS011;2800;49.528;8.666;2022-11-15T14:45:40;10.57;;;6.70;;
5553;SDS011;2800;49.528;8.666;2022-11-15T14:48:05;11.70;;;5.60;;
5553;SDS011;2800;49.528;8.666;2022-11-15T14:50:32;21.30;;;14.10;;
5553;SDS011;2800;49.528;8.666;2022-11-15T14:52:58;10.07;;;5.40;;
5553;SDS011;2800;49.528;8.666;2022-11-15T14:55:28;9.90;;;4.90;;
5553;SDS011;2800;49.528;8.666;2022-11-15T14:57:57;9.87;;;4.70;;
5553;SDS011;2800;49.528;8.666;2022-11-15T15:00:27;52.23;;;31.27;;
5553;SDS011;2800;49.528;8.666;2022-11-15T15:02:54;8.10;;;5.33;;
5553;SDS011;2800;49.528;8.666;2022-11-15T15:05:24;9.07;;;4.53;;
5553;SDS011;2800;49.528;8.666;2022-11-15T15:07:56;10.70;;;6.93;;
5553;SDS011;2800;49.528;8.666;2022-11-15T15:10:22;8.23;;;4.10;;
5553;SDS011;2800;49.528;8.666;2022-11-15T15:12:47;8.63;;;3.83;;
5553;SDS011;2800;49.528;8.666;2022-11-15T15:15:14;8.67;;;3.10;;
5553;SDS011;2800;49.528;8.666;2022-11-15T15:17:42;8.60;;;4.10;;
5553;SDS011;2800;49.528;8.666;2022-11-15T15:20:09;8.07;;;3.80;;
5553;SDS011;2800;49.528;8.666;2022-11-15T15:22:35;10.63;;;3.70;;
5553;SDS011;2800;49.528;8.666;2022-11-15T15:25:01;9.83;;;5.40;;
5553;SDS011;2800;49.528;8.666;2022-11-15T15:27:28;9.10;;;3.10;;
5553;SDS011;2800;49.528;8.666;2022-11-15T15:29:54;5.10;;;2.57;;
5553;SDS011;2800;49.528;8.666;2022-11-15T15:32:19;22.63;;;4.70;;
5553;SDS011;2800;49.528;8.666;2022-11-15T15:34:46;12.90;;;4.00;;
5553;SDS011;2800;49.528;8.666;2022-11-15T15:39:50;9.40;;;4.33;;
5553;SDS011;2800;49.528;8.666;2022-11-15T15:42:18;10.93;;;4.50;;
5553;SDS011;2800;49.528;8.666;2022-11-15T15:44:44;10.27;;;5.80;;
5553;SDS011;2800;49.528;8.666;2022-11-15T15:47:13;11.10;;;5.70;;
5553;SDS011;2800;49.528;8.666;2022-11-15T15:49:42;10.10;;;3.80;;
5553;SDS011;2800;49.528;8.666;2022-11-15T15:52:08;6.97;;;3.07;;
5553;SDS011;2800;49.528;8.666;2022-11-15T15:54:33;5.60;;;2.50;;
5553;SDS011;2800;49.528;8.666;2022-11-15T15:56:59;8.87;;;3.30;;
5553;SDS011;2800;49.528;8.666;2022-11-15T15:59:24;8.30;;;3.80;;
5553;SDS011;2800;49.528;8.666;2022-11-15T16:01:50;7.03;;;3.00;;
5553;SDS011;2800;49.528;8.666;2022-11-15T16:04:15;17.00;;;3.93;;
5553;SDS011;2800;49.528;8.666;2022-11-15T16:06:41;7.63;;;3.43;;
5553;SDS011;2800;49.528;8.666;2022-11-15T16:09:16;6.90;;;3.57;;
5553;SDS011;2800;49.528;8.666;2022-11-15T16:11:46;6.60;;;3.30;;
5553;SDS011;2800;49.528;8.666;2022-11-15T16:14:12;7.30;;;3.20;;
5553;SDS011;2800;49.528;8.666;2022-11-15T16:16:38;7.00;;;3.00;;
5553;SDS011;2800;49.528;8.666;2022-11-15T16:19:03;9.73;;;3.30;;
5553;SDS011;2800;49.528;8.666;2022-11-15T16:21:29;6.17;;;3.20;;
5553;SDS011;2800;49.528;8.666;2022-11-15T16:23:55;6.80;;;3.40;;
5553;SDS011;2800;49.528;8.666;2022-11-15T16:26:22;11.47;;;3.80;;
5553;SDS011;2800;49.528;8.666;2022-11-15T16:28:50;6.77;;;3.70;;
5553;SDS011;2800;49.528;8.666;2022-11-15T16:31:16;11.90;;;6.73;;
5553;SDS011;2800;49.528;8.666;2022-11-15T16:33:43;12.10;;;5.57;;
5553;SDS011;2800;49.528;8.666;2022-11-15T16:36:22;10.70;;;7.37;;
5553;SDS011;2800;49.528;8.666;2022-11-15T16:38:49;53.43;;;35.20;;
5553;SDS011;2800;49.528;8.666;2022-11-15T16:41:15;12.33;;;7.50;;
5553;SDS011;2800;49.528;8.666;2022-11-15T16:43:43;45.53;;;22.37;;
5553;SDS011;2800;49.528;8.666;2022-11-15T16:46:17;13.97;;;8.70;;
5553;SDS011;2800;49.528;8.666;2022-11-15T16:48:45;18.20;;;10.07;;
5553;SDS011;2800;49.528;8.666;2022-11-15T16:51:11;13.70;;;7.87;;
5553;SDS011;2800;49.528;8.666;2022-11-15T16:53:37;25.70;;;15.33;;
5553;SDS011;2800;49.528;8.666;2022-11-15T16:56:03;22.47;;;13.10;;
5553;SDS011;2800;49.528;8.666;2022-11-15T16:58:29;14.87;;;8.57;;
5553;SDS011;2800;49.528;8.666;2022-11-15T17:00:55;12.63;;;7.77;;
5553;SDS011;2800;49.528;8.666;2022-11-15T17:03:21;23.13;;;13.70;;
5553;SDS011;2800;49.528;8.666;2022-11-15T17:05:47;17.57;;;10.60;;
5553;SDS011;2800;49.528;8.666;2022-11-15T17:08:13;8.63;;;4.80;;
5553;SDS011;2800;49.528;8.666;2022-11-15T17:10:39;9.30;;;4.30;;
5553;SDS011;2800;49.528;8.666;2022-11-15T17:13:11;7.93;;;4.27;;
5553;SDS011;2800;49.528;8.666;2022-11-15T17:15:37;6.10;;;3.30;;
5553;SDS011;2800;49.528;8.666;2022-11-15T17:18:03;9.83;;;4.97;;
5553;SDS011;2800;49.528;8.666;2022-11-15T17:20:30;6.90;;;3.70;;
5553;SDS011;2800;49.528;8.666;2022-11-15T17:22:56;16.70;;;4.30;;
5553;SDS011;2800;49.528;8.666;2022-11-15T17:25:22;7.30;;;3.17;;
5553;SDS011;2800;49.528;8.666;2022-11-15T17:27:47;6.93;;;2.80;;
5553;SDS011;2800;49.528;8.666;2022-11-15T17:30:13;9.10;;;3.10;;